Avilla, Missouri
Current Conditions -  °F | °C
As of 4:53 AM on Wednesday 22 Oct 2014 (Local Time) from KJLN Reporting Station
Broken Clouds Broken Clouds  
Wind Chill: 55°   Ceiling: 3800
Heat Index: 55°   Visibility: 10mi
Dew Point: 48°   Wind: 10mph
Humidity: 77%   Direction: 120°ESE
Pressure: 30.12"   Gusts: NA
Location:  37.2°N, 94.13°W
Report Text: KJLN 220953Z AUTO 12009KT 10SM BKN038 13/09 A3012 RMK AO2 SLP194 T01280089
Loading
Personal Weather Stations






























Interactive Weather Map New forecast layout! Learn more

10-Day Weather Forecast

Advertisements
Track Severe Weather on mobile